NCAR-RAP Real-Time Weather Data

Output produced by METARs form (08 May 2021  02:18 UTC)
found at http://weather.rap.ucar.edu/surface/
 
KMIW 080153Z AUTO 07004KT 10SM CLR 09/M06 A3002 RMK AO2 SLP170 T00891056
KMIW 080053Z AUTO 03008KT 10SM CLR 13/M06 A3002 RMK AO2 SLP165 T01331056
KMIW 072353Z AUTO 03009KT 10SM CLR 16/M06 A3002 RMK AO2 SLP167 T01561056 10172 20150 56012
KMIW 072253Z AUTO 33013G17KT 10SM CLR 17/M05 A3002 RMK AO2 SLP170 T01671050
KMIW 072153Z AUTO 34009G19KT 10SM CLR 17/M06 A3003 RMK AO2 SLP173 T01671056
KMIW 072053Z AUTO 34011G22KT 10SM CLR 17/M05 A3005 RMK AO2 SLP178 T01671050 56012
KMIW 071953Z AUTO 31016G23KT 10SM CLR 17/M04 A3006 RMK AO2 PK WND 31030/1857 SLP181 T01671044
KMIW 071853Z AUTO 30016G24KT 10SM CLR 16/M03 A3007 RMK AO2 SLP186 T01611033
KMIW 071753Z AUTO 34013G23KT 10SM CLR 16/M02 A3009 RMK AO2 SLP191 T01561017 10156 20039 58004
KMIW 071653Z AUTO 34016G25KT 10SM CLR 14/M02 A3010 RMK AO2 SLP197 T01441022
KMIW 071553Z AUTO 34009G22KT 10SM CLR 13/M01 A3011 RMK AO2 SLP197 T01331006
KMIW 071453Z AUTO 34013G20KT 10SM CLR 13/01 A3010 RMK AO2 SLP195 T01280006 51021
KMIW 071353Z AUTO 01016KT 10SM CLR 11/03 A3008 RMK AO2 SLP190 T01110033
KMIW 071253Z AUTO 01014G21KT 10SM CLR 10/02 A3006 RMK AO2 SLP181 T01000022
KMIW 071153Z AUTO 31008KT 10SM FEW100 03/M01 A3004 RMK AO2 SLP174 T00331006 10061 20017 53007